sensor_id;sensor_type;location;lat;lon;timestamp;P1;durP1;ratioP1;P2;durP2;ratioP2
15451;SDS011;7827;53.594;9.938;2023-02-18T00:01:40;25.33;;;4.93;;
15451;SDS011;7827;53.594;9.938;2023-02-18T00:04:09;23.53;;;4.83;;
15451;SDS011;7827;53.594;9.938;2023-02-18T00:06:40;19.70;;;4.30;;
15451;SDS011;7827;53.594;9.938;2023-02-18T00:09:09;27.07;;;5.43;;
15451;SDS011;7827;53.594;9.938;2023-02-18T00:11:38;15.40;;;3.57;;
15451;SDS011;7827;53.594;9.938;2023-02-18T00:14:07;20.07;;;4.47;;
15451;SDS011;7827;53.594;9.938;2023-02-18T00:16:40;23.13;;;4.53;;
15451;SDS011;7827;53.594;9.938;2023-02-18T00:19:10;29.33;;;6.43;;
15451;SDS011;7827;53.594;9.938;2023-02-18T00:21:42;21.27;;;4.53;;
15451;SDS011;7827;53.594;9.938;2023-02-18T00:24:12;22.00;;;4.60;;
15451;SDS011;7827;53.594;9.938;2023-02-18T00:26:42;19.47;;;4.67;;
15451;SDS011;7827;53.594;9.938;2023-02-18T00:29:11;21.90;;;4.50;;
15451;SDS011;7827;53.594;9.938;2023-02-18T00:31:40;25.43;;;4.77;;
15451;SDS011;7827;53.594;9.938;2023-02-18T00:34:09;22.53;;;5.07;;
15451;SDS011;7827;53.594;9.938;2023-02-18T00:36:39;31.27;;;5.90;;
15451;SDS011;7827;53.594;9.938;2023-02-18T00:39:11;20.63;;;4.93;;
15451;SDS011;7827;53.594;9.938;2023-02-18T00:41:39;23.83;;;6.37;;
15451;SDS011;7827;53.594;9.938;2023-02-18T00:44:08;21.07;;;4.53;;
15451;SDS011;7827;53.594;9.938;2023-02-18T00:46:38;21.87;;;3.60;;
15451;SDS011;7827;53.594;9.938;2023-02-18T00:49:07;24.40;;;4.23;;
15451;SDS011;7827;53.594;9.938;2023-02-18T00:51:36;25.53;;;5.17;;
15451;SDS011;7827;53.594;9.938;2023-02-18T00:54:06;25.60;;;5.00;;
15451;SDS011;7827;53.594;9.938;2023-02-18T00:56:36;18.33;;;4.27;;
15451;SDS011;7827;53.594;9.938;2023-02-18T00:59:04;29.43;;;5.57;;
15451;SDS011;7827;53.594;9.938;2023-02-18T01:01:33;23.63;;;4.83;;
15451;SDS011;7827;53.594;9.938;2023-02-18T01:04:01;25.67;;;5.07;;
15451;SDS011;7827;53.594;9.938;2023-02-18T01:06:30;31.77;;;4.57;;
15451;SDS011;7827;53.594;9.938;2023-02-18T01:08:58;24.13;;;4.47;;
15451;SDS011;7827;53.594;9.938;2023-02-18T01:11:28;31.50;;;5.37;;
15451;SDS011;7827;53.594;9.938;2023-02-18T01:13:58;17.23;;;4.33;;
15451;SDS011;7827;53.594;9.938;2023-02-18T01:16:28;29.10;;;4.67;;
15451;SDS011;7827;53.594;9.938;2023-02-18T01:18:57;19.13;;;3.63;;
15451;SDS011;7827;53.594;9.938;2023-02-18T01:21:25;32.00;;;5.23;;
15451;SDS011;7827;53.594;9.938;2023-02-18T01:23:54;22.10;;;4.80;;
15451;SDS011;7827;53.594;9.938;2023-02-18T01:26:23;23.00;;;4.50;;
15451;SDS011;7827;53.594;9.938;2023-02-18T01:28:52;18.03;;;4.37;;
15451;SDS011;7827;53.594;9.938;2023-02-18T01:31:22;17.67;;;4.83;;
15451;SDS011;7827;53.594;9.938;2023-02-18T01:33:50;17.57;;;4.30;;
15451;SDS011;7827;53.594;9.938;2023-02-18T01:36:19;31.70;;;5.23;;
15451;SDS011;7827;53.594;9.938;2023-02-18T01:38:47;28.33;;;5.33;;
15451;SDS011;7827;53.594;9.938;2023-02-18T01:41:16;32.50;;;5.87;;
15451;SDS011;7827;53.594;9.938;2023-02-18T01:43:46;26.87;;;5.27;;
15451;SDS011;7827;53.594;9.938;2023-02-18T01:46:16;19.57;;;4.20;;
15451;SDS011;7827;53.594;9.938;2023-02-18T01:48:49;26.67;;;5.27;;
15451;SDS011;7827;53.594;9.938;2023-02-18T01:51:22;25.27;;;5.33;;
15451;SDS011;7827;53.594;9.938;2023-02-18T01:53:55;29.97;;;4.50;;
15451;SDS011;7827;53.594;9.938;2023-02-18T01:56:30;33.53;;;5.90;;
15451;SDS011;7827;53.594;9.938;2023-02-18T01:59:06;20.30;;;4.33;;
15451;SDS011;7827;53.594;9.938;2023-02-18T02:01:40;27.40;;;4.83;;
15451;SDS011;7827;53.594;9.938;2023-02-18T02:04:12;26.13;;;4.60;;
15451;SDS011;7827;53.594;9.938;2023-02-18T02:06:41;28.80;;;3.90;;
15451;SDS011;7827;53.594;9.938;2023-02-18T02:09:11;13.83;;;3.30;;
15451;SDS011;7827;53.594;9.938;2023-02-18T02:11:56;23.77;;;4.30;;
15451;SDS011;7827;53.594;9.938;2023-02-18T02:14:53;20.07;;;4.20;;
15451;SDS011;7827;53.594;9.938;2023-02-18T02:18:04;19.63;;;4.03;;
15451;SDS011;7827;53.594;9.938;2023-02-18T02:24:33;20.70;;;4.47;;
15451;SDS011;7827;53.594;9.938;2023-02-18T02:27:28;22.87;;;4.00;;
15451;SDS011;7827;53.594;9.938;2023-02-18T02:30:41;22.10;;;3.70;;
15451;SDS011;7827;53.594;9.938;2023-02-18T02:33:54;23.53;;;4.27;;
15451;SDS011;7827;53.594;9.938;2023-02-18T02:36:56;27.63;;;4.00;;
15451;SDS011;7827;53.594;9.938;2023-02-18T02:39:37;21.83;;;4.83;;
15451;SDS011;7827;53.594;9.938;2023-02-18T02:42:20;17.23;;;3.37;;
15451;SDS011;7827;53.594;9.938;2023-02-18T02:45:03;18.30;;;4.53;;
15451;SDS011;7827;53.594;9.938;2023-02-18T02:47:40;20.43;;;4.47;;
15451;SDS011;7827;53.594;9.938;2023-02-18T02:50:18;24.73;;;5.03;;
15451;SDS011;7827;53.594;9.938;2023-02-18T02:52:56;20.90;;;4.40;;
15451;SDS011;7827;53.594;9.938;2023-02-18T02:55:32;18.80;;;3.70;;
15451;SDS011;7827;53.594;9.938;2023-02-18T02:58:01;25.10;;;5.10;;
15451;SDS011;7827;53.594;9.938;2023-02-18T03:00:33;14.33;;;3.60;;
15451;SDS011;7827;53.594;9.938;2023-02-18T03:06:29;14.57;;;3.00;;
15451;SDS011;7827;53.594;9.938;2023-02-18T03:09:20;20.40;;;4.30;;
15451;SDS011;7827;53.594;9.938;2023-02-18T03:12:00;18.73;;;3.97;;
15451;SDS011;7827;53.594;9.938;2023-02-18T03:14:40;17.57;;;4.17;;
15451;SDS011;7827;53.594;9.938;2023-02-18T03:17:21;17.00;;;3.57;;
15451;SDS011;7827;53.594;9.938;2023-02-18T03:19:54;24.07;;;4.83;;
15451;SDS011;7827;53.594;9.938;2023-02-18T03:22:35;14.87;;;3.67;;
15451;SDS011;7827;53.594;9.938;2023-02-18T03:25:10;17.77;;;3.53;;
15451;SDS011;7827;53.594;9.938;2023-02-18T03:27:42;15.50;;;3.67;;
15451;SDS011;7827;53.594;9.938;2023-02-18T03:30:18;23.27;;;3.63;;
15451;SDS011;7827;53.594;9.938;2023-02-18T03:32:54;19.30;;;3.90;;
15451;SDS011;7827;53.594;9.938;2023-02-18T03:35:29;23.90;;;4.57;;
15451;SDS011;7827;53.594;9.938;2023-02-18T03:38:02;24.77;;;4.30;;
15451;SDS011;7827;53.594;9.938;2023-02-18T03:40:39;26.70;;;4.67;;
15451;SDS011;7827;53.594;9.938;2023-02-18T03:43:07;16.13;;;3.60;;
15451;SDS011;7827;53.594;9.938;2023-02-18T03:45:36;15.73;;;3.80;;
15451;SDS011;7827;53.594;9.938;2023-02-18T03:48:05;15.03;;;3.40;;
15451;SDS011;7827;53.594;9.938;2023-02-18T03:50:34;15.43;;;3.70;;
15451;SDS011;7827;53.594;9.938;2023-02-18T03:53:04;15.00;;;3.23;;
15451;SDS011;7827;53.594;9.938;2023-02-18T03:55:32;12.60;;;3.27;;
15451;SDS011;7827;53.594;9.938;2023-02-18T03:58:00;13.20;;;3.40;;
15451;SDS011;7827;53.594;9.938;2023-02-18T04:00:28;12.63;;;3.40;;
15451;SDS011;7827;53.594;9.938;2023-02-18T04:02:57;20.30;;;4.50;;
15451;SDS011;7827;53.594;9.938;2023-02-18T04:05:25;9.87;;;2.67;;
15451;SDS011;7827;53.594;9.938;2023-02-18T04:07:54;18.23;;;2.93;;
15451;SDS011;7827;53.594;9.938;2023-02-18T04:10:23;11.20;;;3.47;;
15451;SDS011;7827;53.594;9.938;2023-02-18T04:12:52;14.00;;;3.00;;
15451;SDS011;7827;53.594;9.938;2023-02-18T04:15:20;20.87;;;3.90;;
15451;SDS011;7827;53.594;9.938;2023-02-18T04:17:49;12.60;;;3.33;;
15451;SDS011;7827;53.594;9.938;2023-02-18T04:20:18;14.83;;;3.33;;
15451;SDS011;7827;53.594;9.938;2023-02-18T04:22:47;19.00;;;3.03;;
15451;SDS011;7827;53.594;9.938;2023-02-18T04:25:16;15.77;;;3.63;;
15451;SDS011;7827;53.594;9.938;2023-02-18T04:27:46;18.33;;;3.10;;
15451;SDS011;7827;53.594;9.938;2023-02-18T04:30:15;10.17;;;2.40;;
15451;SDS011;7827;53.594;9.938;2023-02-18T04:32:44;16.17;;;3.73;;
15451;SDS011;7827;53.594;9.938;2023-02-18T04:35:13;13.10;;;3.33;;
15451;SDS011;7827;53.594;9.938;2023-02-18T04:37:41;11.87;;;3.40;;
15451;SDS011;7827;53.594;9.938;2023-02-18T04:40:10;10.20;;;2.47;;
15451;SDS011;7827;53.594;9.938;2023-02-18T04:42:38;13.60;;;3.10;;
15451;SDS011;7827;53.594;9.938;2023-02-18T04:45:09;11.83;;;2.80;;
15451;SDS011;7827;53.594;9.938;2023-02-18T04:47:37;11.87;;;3.37;;
15451;SDS011;7827;53.594;9.938;2023-02-18T04:50:06;13.17;;;3.17;;
15451;SDS011;7827;53.594;9.938;2023-02-18T04:52:37;12.03;;;3.30;;
15451;SDS011;7827;53.594;9.938;2023-02-18T04:55:05;12.33;;;2.80;;
15451;SDS011;7827;53.594;9.938;2023-02-18T04:57:34;14.93;;;3.00;;
15451;SDS011;7827;53.594;9.938;2023-02-18T05:00:03;17.80;;;3.57;;
15451;SDS011;7827;53.594;9.938;2023-02-18T05:02:34;16.23;;;3.37;;
15451;SDS011;7827;53.594;9.938;2023-02-18T05:05:03;14.03;;;2.70;;
15451;SDS011;7827;53.594;9.938;2023-02-18T05:07:31;8.20;;;2.40;;
15451;SDS011;7827;53.594;9.938;2023-02-18T05:10:00;13.70;;;3.17;;
15451;SDS011;7827;53.594;9.938;2023-02-18T05:12:28;12.20;;;3.03;;
15451;SDS011;7827;53.594;9.938;2023-02-18T05:14:57;15.00;;;2.90;;
15451;SDS011;7827;53.594;9.938;2023-02-18T05:17:25;11.40;;;2.97;;
15451;SDS011;7827;53.594;9.938;2023-02-18T05:19:55;14.00;;;3.10;;
15451;SDS011;7827;53.594;9.938;2023-02-18T05:22:23;16.20;;;3.07;;
15451;SDS011;7827;53.594;9.938;2023-02-18T05:24:52;17.83;;;3.40;;
15451;SDS011;7827;53.594;9.938;2023-02-18T05:27:20;10.93;;;2.73;;
15451;SDS011;7827;53.594;9.938;2023-02-18T05:29:48;14.13;;;3.07;;
15451;SDS011;7827;53.594;9.938;2023-02-18T05:32:16;8.70;;;3.07;;
15451;SDS011;7827;53.594;9.938;2023-02-18T05:34:45;10.93;;;2.50;;
15451;SDS011;7827;53.594;9.938;2023-02-18T05:37:15;15.03;;;3.37;;
15451;SDS011;7827;53.594;9.938;2023-02-18T05:39:43;22.30;;;3.67;;
15451;SDS011;7827;53.594;9.938;2023-02-18T05:42:12;19.30;;;3.57;;
15451;SDS011;7827;53.594;9.938;2023-02-18T05:44:40;13.63;;;2.83;;
15451;SDS011;7827;53.594;9.938;2023-02-18T05:47:10;22.53;;;3.57;;
15451;SDS011;7827;53.594;9.938;2023-02-18T05:49:40;11.33;;;2.50;;
15451;SDS011;7827;53.594;9.938;2023-02-18T05:52:09;15.87;;;3.53;;
15451;SDS011;7827;53.594;9.938;2023-02-18T05:54:40;13.70;;;2.73;;
15451;SDS011;7827;53.594;9.938;2023-02-18T05:57:09;16.77;;;3.20;;
15451;SDS011;7827;53.594;9.938;2023-02-18T05:59:40;15.00;;;3.17;;
15451;SDS011;7827;53.594;9.938;2023-02-18T06:02:09;13.77;;;3.10;;
15451;SDS011;7827;53.594;9.938;2023-02-18T06:04:37;10.63;;;3.50;;
15451;SDS011;7827;53.594;9.938;2023-02-18T06:07:05;11.43;;;2.90;;
15451;SDS011;7827;53.594;9.938;2023-02-18T06:09:34;13.87;;;3.17;;
15451;SDS011;7827;53.594;9.938;2023-02-18T06:12:04;15.30;;;2.90;;
15451;SDS011;7827;53.594;9.938;2023-02-18T06:14:33;10.43;;;2.70;;
15451;SDS011;7827;53.594;9.938;2023-02-18T06:17:01;17.47;;;3.10;;
15451;SDS011;7827;53.594;9.938;2023-02-18T06:19:29;10.77;;;2.70;;
15451;SDS011;7827;53.594;9.938;2023-02-18T06:21:58;13.13;;;3.20;;
15451;SDS011;7827;53.594;9.938;2023-02-18T06:24:27;9.63;;;2.90;;
15451;SDS011;7827;53.594;9.938;2023-02-18T06:26:55;11.17;;;2.90;;
15451;SDS011;7827;53.594;9.938;2023-02-18T06:29:25;9.27;;;2.50;;
15451;SDS011;7827;53.594;9.938;2023-02-18T06:31:55;16.83;;;3.27;;
15451;SDS011;7827;53.594;9.938;2023-02-18T06:34:25;13.93;;;3.13;;
15451;SDS011;7827;53.594;9.938;2023-02-18T06:36:54;10.97;;;2.53;;
15451;SDS011;7827;53.594;9.938;2023-02-18T06:39:25;9.87;;;2.37;;
15451;SDS011;7827;53.594;9.938;2023-02-18T06:41:53;15.50;;;3.53;;
15451;SDS011;7827;53.594;9.938;2023-02-18T06:44:21;9.50;;;2.40;;
15451;SDS011;7827;53.594;9.938;2023-02-18T06:46:51;13.23;;;3.33;;
15451;SDS011;7827;53.594;9.938;2023-02-18T06:49:19;11.63;;;2.90;;
15451;SDS011;7827;53.594;9.938;2023-02-18T06:51:47;16.07;;;2.50;;
15451;SDS011;7827;53.594;9.938;2023-02-18T06:54:16;14.07;;;3.23;;
15451;SDS011;7827;53.594;9.938;2023-02-18T06:56:44;9.67;;;2.50;;
15451;SDS011;7827;53.594;9.938;2023-02-18T06:59:13;10.23;;;2.80;;
15451;SDS011;7827;53.594;9.938;2023-02-18T07:01:41;14.17;;;3.20;;
15451;SDS011;7827;53.594;9.938;2023-02-18T07:04:11;14.33;;;2.80;;
15451;SDS011;7827;53.594;9.938;2023-02-18T07:06:40;8.90;;;2.53;;
15451;SDS011;7827;53.594;9.938;2023-02-18T07:09:08;9.17;;;2.77;;
15451;SDS011;7827;53.594;9.938;2023-02-18T07:11:36;11.20;;;2.70;;
15451;SDS011;7827;53.594;9.938;2023-02-18T07:14:04;12.67;;;2.87;;
15451;SDS011;7827;53.594;9.938;2023-02-18T07:16:33;11.50;;;2.93;;
15451;SDS011;7827;53.594;9.938;2023-02-18T07:19:02;15.50;;;3.57;;
15451;SDS011;7827;53.594;9.938;2023-02-18T07:21:31;15.67;;;3.20;;
15451;SDS011;7827;53.594;9.938;2023-02-18T07:24:00;16.27;;;3.60;;
15451;SDS011;7827;53.594;9.938;2023-02-18T07:26:28;12.63;;;2.93;;
15451;SDS011;7827;53.594;9.938;2023-02-18T07:28:56;14.27;;;3.40;;
15451;SDS011;7827;53.594;9.938;2023-02-18T07:31:24;16.70;;;3.30;;
15451;SDS011;7827;53.594;9.938;2023-02-18T07:33:53;16.93;;;3.70;;
15451;SDS011;7827;53.594;9.938;2023-02-18T07:36:21;16.20;;;3.93;;
15451;SDS011;7827;53.594;9.938;2023-02-18T07:38:51;15.40;;;3.90;;
15451;SDS011;7827;53.594;9.938;2023-02-18T07:41:20;14.57;;;3.23;;
15451;SDS011;7827;53.594;9.938;2023-02-18T07:43:50;14.97;;;3.40;;
15451;SDS011;7827;53.594;9.938;2023-02-18T07:46:19;16.30;;;3.37;;
15451;SDS011;7827;53.594;9.938;2023-02-18T07:48:47;12.93;;;4.10;;
15451;SDS011;7827;53.594;9.938;2023-02-18T07:51:15;11.30;;;3.27;;
15451;SDS011;7827;53.594;9.938;2023-02-18T07:53:43;13.97;;;3.50;;
15451;SDS011;7827;53.594;9.938;2023-02-18T07:56:13;14.47;;;3.50;;
15451;SDS011;7827;53.594;9.938;2023-02-18T07:58:42;14.67;;;3.93;;
15451;SDS011;7827;53.594;9.938;2023-02-18T08:01:10;12.53;;;3.43;;
15451;SDS011;7827;53.594;9.938;2023-02-18T08:03:41;14.93;;;4.10;;
15451;SDS011;7827;53.594;9.938;2023-02-18T08:06:13;13.20;;;3.83;;
15451;SDS011;7827;53.594;9.938;2023-02-18T08:08:51;12.83;;;4.03;;
15451;SDS011;7827;53.594;9.938;2023-02-18T08:11:21;14.40;;;3.70;;
15451;SDS011;7827;53.594;9.938;2023-02-18T08:13:49;19.50;;;4.33;;
15451;SDS011;7827;53.594;9.938;2023-02-18T08:16:18;13.40;;;3.27;;
15451;SDS011;7827;53.594;9.938;2023-02-18T08:18:48;12.67;;;3.93;;
15451;SDS011;7827;53.594;9.938;2023-02-18T08:21:18;17.13;;;3.63;;
15451;SDS011;7827;53.594;9.938;2023-02-18T08:23:48;16.80;;;4.17;;
15451;SDS011;7827;53.594;9.938;2023-02-18T08:26:17;16.03;;;3.63;;
15451;SDS011;7827;53.594;9.938;2023-02-18T08:28:48;12.43;;;4.73;;
15451;SDS011;7827;53.594;9.938;2023-02-18T08:31:17;15.10;;;4.67;;
15451;SDS011;7827;53.594;9.938;2023-02-18T08:33:48;14.07;;;5.23;;
15451;SDS011;7827;53.594;9.938;2023-02-18T08:36:17;10.93;;;4.73;;
15451;SDS011;7827;53.594;9.938;2023-02-18T08:38:45;14.23;;;4.37;;
15451;SDS011;7827;53.594;9.938;2023-02-18T08:41:14;17.53;;;5.03;;
15451;SDS011;7827;53.594;9.938;2023-02-18T08:43:44;13.10;;;5.03;;
15451;SDS011;7827;53.594;9.938;2023-02-18T08:46:14;14.97;;;4.40;;
15451;SDS011;7827;53.594;9.938;2023-02-18T08:49:01;17.83;;;3.93;;
15451;SDS011;7827;53.594;9.938;2023-02-18T08:51:30;14.40;;;4.23;;
15451;SDS011;7827;53.594;9.938;2023-02-18T08:53:59;9.13;;;3.93;;
15451;SDS011;7827;53.594;9.938;2023-02-18T08:56:28;14.83;;;4.23;;
15451;SDS011;7827;53.594;9.938;2023-02-18T08:58:57;11.13;;;4.63;;
15451;SDS011;7827;53.594;9.938;2023-02-18T09:01:27;16.47;;;5.20;;
15451;SDS011;7827;53.594;9.938;2023-02-18T09:03:55;11.27;;;4.50;;
15451;SDS011;7827;53.594;9.938;2023-02-18T09:06:24;16.23;;;4.30;;
15451;SDS011;7827;53.594;9.938;2023-02-18T09:08:54;14.33;;;5.20;;
15451;SDS011;7827;53.594;9.938;2023-02-18T09:11:22;12.97;;;4.87;;
15451;SDS011;7827;53.594;9.938;2023-02-18T09:13:51;14.23;;;5.20;;
15451;SDS011;7827;53.594;9.938;2023-02-18T09:16:19;13.93;;;5.33;;
15451;SDS011;7827;53.594;9.938;2023-02-18T09:18:51;14.93;;;5.70;;
15451;SDS011;7827;53.594;9.938;2023-02-18T09:21:19;18.63;;;5.97;;
15451;SDS011;7827;53.594;9.938;2023-02-18T09:23:48;14.03;;;5.87;;
15451;SDS011;7827;53.594;9.938;2023-02-18T09:26:18;14.97;;;7.20;;
15451;SDS011;7827;53.594;9.938;2023-02-18T09:28:48;15.60;;;7.80;;
15451;SDS011;7827;53.594;9.938;2023-02-18T09:31:19;17.30;;;7.83;;
15451;SDS011;7827;53.594;9.938;2023-02-18T09:33:53;17.20;;;9.20;;
15451;SDS011;7827;53.594;9.938;2023-02-18T09:36:24;21.47;;;9.10;;
15451;SDS011;7827;53.594;9.938;2023-02-18T09:38:53;20.20;;;10.10;;
15451;SDS011;7827;53.594;9.938;2023-02-18T09:41:30;20.57;;;10.87;;
15451;SDS011;7827;53.594;9.938;2023-02-18T09:44:08;18.10;;;10.83;;
15451;SDS011;7827;53.594;9.938;2023-02-18T09:46:45;21.40;;;11.03;;
15451;SDS011;7827;53.594;9.938;2023-02-18T09:49:20;16.30;;;10.07;;
15451;SDS011;7827;53.594;9.938;2023-02-18T09:51:53;19.37;;;11.63;;
15451;SDS011;7827;53.594;9.938;2023-02-18T09:54:25;16.23;;;11.47;;
15451;SDS011;7827;53.594;9.938;2023-02-18T09:56:54;21.90;;;12.13;;
15451;SDS011;7827;53.594;9.938;2023-02-18T09:59:23;18.10;;;12.30;;
15451;SDS011;7827;53.594;9.938;2023-02-18T10:01:53;19.47;;;12.10;;
15451;SDS011;7827;53.594;9.938;2023-02-18T10:04:26;18.97;;;12.03;;
15451;SDS011;7827;53.594;9.938;2023-02-18T10:07:00;19.17;;;12.57;;
15451;SDS011;7827;53.594;9.938;2023-02-18T10:09:32;18.20;;;12.70;;
15451;SDS011;7827;53.594;9.938;2023-02-18T10:12:10;17.63;;;11.60;;
15451;SDS011;7827;53.594;9.938;2023-02-18T10:14:45;18.77;;;12.30;;
15451;SDS011;7827;53.594;9.938;2023-02-18T10:17:17;27.03;;;12.60;;
15451;SDS011;7827;53.594;9.938;2023-02-18T10:19:52;19.80;;;12.23;;
15451;SDS011;7827;53.594;9.938;2023-02-18T10:22:24;18.90;;;12.07;;
15451;SDS011;7827;53.594;9.938;2023-02-18T10:24:55;16.67;;;11.53;;
15451;SDS011;7827;53.594;9.938;2023-02-18T10:27:27;18.77;;;11.83;;
15451;SDS011;7827;53.594;9.938;2023-02-18T10:30:00;16.30;;;12.00;;
15451;SDS011;7827;53.594;9.938;2023-02-18T10:32:47;18.00;;;12.27;;
15451;SDS011;7827;53.594;9.938;2023-02-18T10:35:24;18.80;;;12.30;;
15451;SDS011;7827;53.594;9.938;2023-02-18T10:38:02;13.93;;;10.90;;
15451;SDS011;7827;53.594;9.938;2023-02-18T10:40:42;18.07;;;11.83;;
15451;SDS011;7827;53.594;9.938;2023-02-18T10:43:27;14.57;;;11.33;;
15451;SDS011;7827;53.594;9.938;2023-02-18T10:46:11;18.00;;;11.53;;
15451;SDS011;7827;53.594;9.938;2023-02-18T10:49:03;17.57;;;12.10;;
15451;SDS011;7827;53.594;9.938;2023-02-18T10:51:56;18.17;;;11.90;;
15451;SDS011;7827;53.594;9.938;2023-02-18T10:54:26;15.23;;;11.03;;
15451;SDS011;7827;53.594;9.938;2023-02-18T10:57:16;13.97;;;10.67;;
15451;SDS011;7827;53.594;9.938;2023-02-18T10:59:55;13.67;;;10.20;;
15451;SDS011;7827;53.594;9.938;2023-02-18T11:02:29;13.33;;;10.27;;
15451;SDS011;7827;53.594;9.938;2023-02-18T11:04:59;13.23;;;10.27;;
15451;SDS011;7827;53.594;9.938;2023-02-18T11:07:47;14.30;;;9.97;;
15451;SDS011;7827;53.594;9.938;2023-02-18T11:10:21;13.73;;;9.27;;
15451;SDS011;7827;53.594;9.938;2023-02-18T11:12:54;13.27;;;9.40;;
15451;SDS011;7827;53.594;9.938;2023-02-18T11:15:27;12.53;;;8.90;;
15451;SDS011;7827;53.594;9.938;2023-02-18T11:17:57;13.47;;;10.17;;
15451;SDS011;7827;53.594;9.938;2023-02-18T11:20:54;13.50;;;9.57;;
15451;SDS011;7827;53.594;9.938;2023-02-18T11:23:26;12.33;;;9.63;;
15451;SDS011;7827;53.594;9.938;2023-02-18T11:25:59;11.13;;;9.23;;
15451;SDS011;7827;53.594;9.938;2023-02-18T11:28:39;10.23;;;8.37;;
15451;SDS011;7827;53.594;9.938;2023-02-18T11:31:15;11.33;;;8.77;;
15451;SDS011;7827;53.594;9.938;2023-02-18T11:33:50;10.60;;;8.90;;
15451;SDS011;7827;53.594;9.938;2023-02-18T11:36:23;11.57;;;8.60;;
15451;SDS011;7827;53.594;9.938;2023-02-18T11:38:58;10.10;;;8.60;;
15451;SDS011;7827;53.594;9.938;2023-02-18T11:41:31;9.93;;;7.37;;
15451;SDS011;7827;53.594;9.938;2023-02-18T11:44:03;6.97;;;5.90;;
15451;SDS011;7827;53.594;9.938;2023-02-18T11:46:54;7.67;;;6.03;;
15451;SDS011;7827;53.594;9.938;2023-02-18T11:49:25;2.70;;;2.23;;
15451;SDS011;7827;53.594;9.938;2023-02-18T11:52:02;2.47;;;1.90;;
15451;SDS011;7827;53.594;9.938;2023-02-18T11:54:43;5.53;;;2.37;;
15451;SDS011;7827;53.594;9.938;2023-02-18T11:57:28;2.30;;;2.10;;
15451;SDS011;7827;53.594;9.938;2023-02-18T11:59:58;2.53;;;2.20;;
15451;SDS011;7827;53.594;9.938;2023-02-18T12:02:35;2.97;;;2.13;;
15451;SDS011;7827;53.594;9.938;2023-02-18T12:05:08;1.77;;;1.50;;
15451;SDS011;7827;53.594;9.938;2023-02-18T12:07:46;2.40;;;1.73;;
15451;SDS011;7827;53.594;9.938;2023-02-18T12:10:20;1.00;;;1.00;;
15451;SDS011;7827;53.594;9.938;2023-02-18T12:12:56;1.40;;;1.30;;
15451;SDS011;7827;53.594;9.938;2023-02-18T12:15:33;2.63;;;1.50;;
15451;SDS011;7827;53.594;9.938;2023-02-18T12:24:25;2.63;;;1.43;;
15451;SDS011;7827;53.594;9.938;2023-02-18T12:27:14;5.87;;;1.70;;
15451;SDS011;7827;53.594;9.938;2023-02-18T12:33:00;3.57;;;1.70;;
15451;SDS011;7827;53.594;9.938;2023-02-18T12:35:44;4.83;;;2.20;;
15451;SDS011;7827;53.594;9.938;2023-02-18T12:38:34;6.83;;;2.30;;
15451;SDS011;7827;53.594;9.938;2023-02-18T12:41:24;8.87;;;2.70;;
15451;SDS011;7827;53.594;9.938;2023-02-18T12:44:35;9.13;;;3.03;;
15451;SDS011;7827;53.594;9.938;2023-02-18T12:47:31;13.73;;;2.93;;
15451;SDS011;7827;53.594;9.938;2023-02-18T12:50:41;11.77;;;3.10;;
15451;SDS011;7827;53.594;9.938;2023-02-18T12:53:53;13.07;;;3.60;;
15451;SDS011;7827;53.594;9.938;2023-02-18T12:56:58;8.13;;;2.63;;
15451;SDS011;7827;53.594;9.938;2023-02-18T13:03:20;12.77;;;3.73;;
15451;SDS011;7827;53.594;9.938;2023-02-18T13:06:27;14.83;;;4.00;;
15451;SDS011;7827;53.594;9.938;2023-02-18T13:09:17;18.23;;;3.53;;
15451;SDS011;7827;53.594;9.938;2023-02-18T13:11:58;10.33;;;3.20;;
15451;SDS011;7827;53.594;9.938;2023-02-18T13:14:37;14.10;;;4.57;;
15451;SDS011;7827;53.594;9.938;2023-02-18T13:17:15;17.80;;;4.27;;
15451;SDS011;7827;53.594;9.938;2023-02-18T13:19:48;25.33;;;6.17;;
15451;SDS011;7827;53.594;9.938;2023-02-18T13:22:22;22.43;;;4.90;;
15451;SDS011;7827;53.594;9.938;2023-02-18T13:24:56;20.97;;;5.77;;
15451;SDS011;7827;53.594;9.938;2023-02-18T13:27:28;18.20;;;4.67;;
15451;SDS011;7827;53.594;9.938;2023-02-18T13:30:14;21.87;;;5.10;;
15451;SDS011;7827;53.594;9.938;2023-02-18T13:32:56;18.57;;;5.17;;
15451;SDS011;7827;53.594;9.938;2023-02-18T13:35:40;17.70;;;4.40;;
15451;SDS011;7827;53.594;9.938;2023-02-18T13:38:19;11.47;;;4.07;;
15451;SDS011;7827;53.594;9.938;2023-02-18T13:41:17;19.57;;;4.73;;
15451;SDS011;7827;53.594;9.938;2023-02-18T13:43:47;15.90;;;4.67;;
15451;SDS011;7827;53.594;9.938;2023-02-18T13:46:16;23.07;;;4.80;;
15451;SDS011;7827;53.594;9.938;2023-02-18T13:48:49;23.47;;;4.97;;
15451;SDS011;7827;53.594;9.938;2023-02-18T13:51:27;15.23;;;4.63;;
15451;SDS011;7827;53.594;9.938;2023-02-18T13:54:00;22.90;;;6.67;;
15451;SDS011;7827;53.594;9.938;2023-02-18T13:56:43;28.07;;;5.37;;
15451;SDS011;7827;53.594;9.938;2023-02-18T13:59:17;22.07;;;5.20;;
15451;SDS011;7827;53.594;9.938;2023-02-18T14:01:50;20.63;;;5.57;;
15451;SDS011;7827;53.594;9.938;2023-02-18T14:04:36;18.03;;;5.13;;
15451;SDS011;7827;53.594;9.938;2023-02-18T14:07:26;16.77;;;4.60;;
15451;SDS011;7827;53.594;9.938;2023-02-18T14:10:24;13.47;;;4.53;;
15451;SDS011;7827;53.594;9.938;2023-02-18T14:13:02;12.80;;;3.87;;
15451;SDS011;7827;53.594;9.938;2023-02-18T14:16:04;9.80;;;4.17;;
15451;SDS011;7827;53.594;9.938;2023-02-18T14:18:54;13.60;;;4.30;;
15451;SDS011;7827;53.594;9.938;2023-02-18T14:21:38;4.70;;;3.40;;
15451;SDS011;7827;53.594;9.938;2023-02-18T14:24:09;6.13;;;3.87;;
15451;SDS011;7827;53.594;9.938;2023-02-18T14:26:42;4.77;;;3.40;;
15451;SDS011;7827;53.594;9.938;2023-02-18T14:29:14;3.90;;;3.50;;
15451;SDS011;7827;53.594;9.938;2023-02-18T14:31:55;3.83;;;3.53;;
15451;SDS011;7827;53.594;9.938;2023-02-18T14:37:59;6.40;;;3.83;;
15451;SDS011;7827;53.594;9.938;2023-02-18T14:41:08;5.90;;;3.83;;
15451;SDS011;7827;53.594;9.938;2023-02-18T14:43:56;4.80;;;4.33;;
15451;SDS011;7827;53.594;9.938;2023-02-18T14:46:57;5.27;;;4.67;;
15451;SDS011;7827;53.594;9.938;2023-02-18T14:49:51;5.63;;;5.00;;
15451;SDS011;7827;53.594;9.938;2023-02-18T14:52:26;5.47;;;4.50;;
15451;SDS011;7827;53.594;9.938;2023-02-18T14:55:01;5.97;;;5.07;;
15451;SDS011;7827;53.594;9.938;2023-02-18T14:57:35;5.50;;;4.90;;
15451;SDS011;7827;53.594;9.938;2023-02-18T15:00:13;5.43;;;4.83;;
15451;SDS011;7827;53.594;9.938;2023-02-18T15:02:46;6.77;;;6.07;;
15451;SDS011;7827;53.594;9.938;2023-02-18T15:05:17;5.47;;;4.67;;
15451;SDS011;7827;53.594;9.938;2023-02-18T15:07:56;4.23;;;3.83;;
15451;SDS011;7827;53.594;9.938;2023-02-18T15:10:30;10.47;;;4.73;;
15451;SDS011;7827;53.594;9.938;2023-02-18T15:13:07;5.17;;;3.90;;
15451;SDS011;7827;53.594;9.938;2023-02-18T15:15:44;6.03;;;4.87;;
15451;SDS011;7827;53.594;9.938;2023-02-18T15:18:20;4.43;;;3.53;;
15451;SDS011;7827;53.594;9.938;2023-02-18T15:20:56;3.20;;;2.90;;
15451;SDS011;7827;53.594;9.938;2023-02-18T15:23:27;3.50;;;2.90;;
15451;SDS011;7827;53.594;9.938;2023-02-18T15:25:59;3.23;;;2.93;;
15451;SDS011;7827;53.594;9.938;2023-02-18T15:28:29;3.03;;;2.80;;
15451;SDS011;7827;53.594;9.938;2023-02-18T15:31:02;3.67;;;2.53;;
15451;SDS011;7827;53.594;9.938;2023-02-18T15:33:41;2.30;;;2.10;;
15451;SDS011;7827;53.594;9.938;2023-02-18T15:36:12;2.20;;;2.00;;
15451;SDS011;7827;53.594;9.938;2023-02-18T15:38:41;2.30;;;2.10;;
15451;SDS011;7827;53.594;9.938;2023-02-18T15:41:11;2.40;;;2.20;;
15451;SDS011;7827;53.594;9.938;2023-02-18T15:43:50;2.77;;;2.37;;
15451;SDS011;7827;53.594;9.938;2023-02-18T15:46:21;2.13;;;1.93;;
15451;SDS011;7827;53.594;9.938;2023-02-18T15:48:52;2.83;;;2.20;;
15451;SDS011;7827;53.594;9.938;2023-02-18T15:51:25;3.87;;;2.20;;
15451;SDS011;7827;53.594;9.938;2023-02-18T15:53:57;3.97;;;2.00;;